Time,TemperatureF,DewpointF,PressureIn,WindDirection,WindDirectionDegrees,WindSpeedMPH,WindSpeedGustMPH,Humidity,HourlyPrecipIn,Conditions,Clouds,dailyrainin,SoftwareType,DateUTC
2013-06-21 00:01:00,81.7,74.9,30.08,East,90,4.6,4.6,80,0.00,SCT,,0.00,WeatherDisplay:10.37,2013-06-21 04:01:00,
2013-06-21 00:02:00,81.7,74.9,30.08,ESE,112,6.9,6.9,80,0.00,SCT,,0.00,WeatherDisplay:10.37,2013-06-21 04:02:00,
2013-06-21 00:05:00,81.7,74.9,30.08,SSE,162,3.0,7.0,80,0.00,SCT,SCT,0.00,WeatherDisplay:10.37,2013-06-21 04:05:00,
2013-06-21 00:06:00,81.7,74.9,30.08,SSW,202,5.8,5.8,80,0.00,BKN,SCT,0.00,WeatherDisplay:10.37,2013-06-21 04:06:00,
2013-06-21 00:12:00,81.5,74.7,30.08,SE,135,4.6,4.6,80,0.00,BKN,SCT,0.00,WeatherDisplay:10.37,2013-06-21 04:12:00,
2013-06-21 00:17:00,81.5,74.7,30.08,SSE,158,2.7,2.7,80,0.00,BKN,SCT,0.00,WeatherDisplay:10.37,2013-06-21 04:17:00,
2013-06-21 00:22:00,81.5,75.1,30.08,SSE,158,3.5,3.5,81,0.00,BKN,SCT,0.00,WeatherDisplay:10.37,2013-06-21 04:22:00,
2013-06-21 00:27:00,81.5,75.5,30.08,ENE,68,2.3,2.3,82,0.00,BKN,SCT,0.00,WeatherDisplay:10.37,2013-06-21 04:27:00,
2013-06-21 00:32:00,81.5,75.5,30.08,South,180,3.3,3.3,82,0.00,BKN,SCT,0.00,WeatherDisplay:10.37,2013-06-21 04:32:00,
2013-06-21 00:37:00,81.3,75.3,30.09,WSW,248,3.5,3.5,82,0.00,BKN,SCT,0.00,WeatherDisplay:10.37,2013-06-21 04:37:00,
2013-06-21 00:42:00,81.3,75.3,30.09,SW,225,4.6,4.6,82,0.00,BKN,SCT,0.00,WeatherDisplay:10.37,2013-06-21 04:42:00,
2013-06-21 00:47:00,81.5,75.5,30.09,SE,135,4.6,4.6,82,0.00,BKN,SCT,0.00,WeatherDisplay:10.37,2013-06-21 04:47:00,
2013-06-21 00:52:00,81.5,75.5,30.08,SW,225,5.8,5.8,82,0.00,BKN,SCT,0.00,WeatherDisplay:10.37,2013-06-21 04:52:00,
2013-06-21 00:57:00,81.5,75.5,30.08,SW,225,4.6,4.6,82,0.00,BKN,SCT,0.00,WeatherDisplay:10.37,2013-06-21 04:57:00,
2013-06-21 01:02:00,81.5,75.8,30.08,NE,45,6.4,6.4,83,0.00,BKN,SCT,0.00,WeatherDisplay:10.37,2013-06-21 05:02:00,
2013-06-21 01:07:00,81.5,75.8,30.08,South,180,0.0,0.0,83,0.00,BKN,SCT,0.00,WeatherDisplay:10.37,2013-06-21 05:07:00,
2013-06-21 01:12:00,81.5,76.2,30.08,WSW,248,0.0,0.0,84,0.00,BKN,SCT,0.00,WeatherDisplay:10.37,2013-06-21 05:12:00,
2013-06-21 01:17:00,81.7,76.4,30.08,ENE,68,5.8,5.8,84,0.00,BKN,SCT,0.00,WeatherDisplay:10.37,2013-06-21 05:17:00,
2013-06-21 01:22:00,81.7,76.0,30.08,SE,135,2.7,2.7,83,0.00,BKN,SCT,0.00,WeatherDisplay:10.37,2013-06-21 05:22:00,
2013-06-21 01:28:00,81.7,76.0,30.07,South,180,4.3,4.3,83,0.00,BKN,SCT,0.00,WeatherDisplay:10.37,2013-06-21 05:28:00,
2013-06-21 01:33:00,81.7,76.0,30.07,SSW,202,3.5,0.0,83,0.00,BKN,SCT,0.00,WeatherDisplay:10.37,2013-06-21 05:33:00,
2013-06-21 01:38:00,81.7,76.0,30.07,South,180,2.7,2.7,83,0.00,BKN,SCT,0.00,WeatherDisplay:10.37,2013-06-21 05:38:00,
2013-06-21 01:43:00,81.5,75.8,30.07,SSE,158,2.3,2.3,83,0.00,BKN,SCT,0.00,WeatherDisplay:10.37,2013-06-21 05:43:00,
2013-06-21 01:48:00,81.5,75.8,30.07,ESE,112,0.0,0.0,83,0.00,BKN,SCT,0.00,WeatherDisplay:10.37,2013-06-21 05:48:00,
2013-06-21 01:53:00,81.5,75.8,30.07,South,180,2.3,2.3,83,0.00,BKN,SCT,0.00,WeatherDisplay:10.37,2013-06-21 05:53:00,
2013-06-21 01:58:00,81.5,75.8,30.07,South,180,5.8,5.8,83,0.00,BKN,SCT,0.00,WeatherDisplay:10.37,2013-06-21 05:58:00,
2013-06-21 02:03:00,81.7,76.0,30.07,SSW,202,3.8,3.8,83,0.00,BKN,SCT,0.00,WeatherDisplay:10.37,2013-06-21 06:03:00,
2013-06-21 02:08:00,81.9,76.6,30.07,South,180,2.3,2.3,84,0.00,BKN,SCT,0.00,WeatherDisplay:10.37,2013-06-21 06:08:00,
2013-06-21 02:13:00,81.9,76.6,30.06,East,90,3.3,3.3,84,0.00,BKN,SCT,0.00,WeatherDisplay:10.37,2013-06-21 06:13:00,
2013-06-21 02:18:00,81.9,76.6,30.06,South,180,3.3,3.3,84,0.00,BKN,SCT,0.00,WeatherDisplay:10.37,2013-06-21 06:18:00,
2013-06-21 02:23:00,81.9,76.2,30.06,SE,135,4.6,4.6,83,0.00,BKN,SCT,0.00,WeatherDisplay:10.37,2013-06-21 06:23:00,
2013-06-21 02:28:00,81.7,75.7,30.06,SSW,202,3.3,3.3,82,0.00,BKN,SCT,0.00,WeatherDisplay:10.37,2013-06-21 06:28:00,
2013-06-21 02:33:00,81.7,75.7,30.06,SE,135,2.7,2.7,82,0.00,BKN,SCT,0.00,WeatherDisplay:10.37,2013-06-21 06:33:00,
2013-06-21 02:38:00,81.5,75.1,30.05,ESE,112,4.3,4.3,81,0.00,BKN,SCT,0.00,WeatherDisplay:10.37,2013-06-21 06:38:00,
2013-06-21 02:44:00,81.5,75.1,30.05,SW,225,5.4,5.4,81,0.00,BKN,SCT,0.00,WeatherDisplay:10.37,2013-06-21 06:44:00,
2013-06-21 02:49:00,81.7,75.3,30.05,SE,135,5.8,5.8,81,0.00,BKN,SCT,0.00,WeatherDisplay:10.37,2013-06-21 06:49:00,
2013-06-21 02:54:00,81.7,75.3,30.05,SSW,202,2.3,2.3,81,0.00,BKN,SCT,0.00,WeatherDisplay:10.37,2013-06-21 06:54:00,
2013-06-21 02:59:00,81.7,75.3,30.05,WSW,248,6.9,6.9,81,0.00,BKN,SCT,0.00,WeatherDisplay:10.37,2013-06-21 06:59:00,
2013-06-21 03:04:00,81.7,75.3,30.05,ESE,112,5.8,5.8,81,0.00,BKN,SCT,0.00,WeatherDisplay:10.37,2013-06-21 07:04:00,
2013-06-21 03:09:00,81.7,75.3,30.05,SSE,158,4.6,4.6,81,0.00,SCT,,0.00,WeatherDisplay:10.37,2013-06-21 07:09:00,
2013-06-21 03:14:00,81.7,74.9,30.05,SW,225,4.6,4.6,80,0.00,SCT,,0.00,WeatherDisplay:10.37,2013-06-21 07:14:00,
2013-06-21 03:19:00,81.5,74.7,30.05,SSE,158,3.5,3.5,80,0.00,SCT,,0.00,WeatherDisplay:10.37,2013-06-21 07:19:00,
2013-06-21 03:24:00,81.3,74.9,30.05,SSW,202,2.3,2.3,81,0.00,SCT,,0.00,WeatherDisplay:10.37,2013-06-21 07:24:00,
2013-06-21 03:29:00,80.8,74.8,30.04,South,180,0.0,0.0,82,0.00,SCT,,0.00,WeatherDisplay:10.37,2013-06-21 07:29:00,
2013-06-21 03:34:00,80.2,74.6,30.04,South,180,0.0,0.0,83,0.00,SCT,,0.00,WeatherDisplay:10.37,2013-06-21 07:34:00,
2013-06-21 03:39:00,79.9,74.6,30.04,South,180,0.0,0.0,84,0.00,SCT,,0.00,WeatherDisplay:10.37,2013-06-21 07:39:00,
2013-06-21 03:44:00,79.5,74.2,30.04,SW,225,0.0,0.0,84,0.00,SCT,,0.00,WeatherDisplay:10.37,2013-06-21 07:44:00,
2013-06-21 03:49:00,79.3,74.4,30.03,SSW,202,0.0,0.0,85,0.00,SCT,,0.00,WeatherDisplay:10.37,2013-06-21 07:49:00,
2013-06-21 03:54:00,79.2,74.3,30.03,SSW,202,0.0,0.0,85,0.00,SCT,,0.00,WeatherDisplay:10.37,2013-06-21 07:54:00,
2013-06-21 04:00:00,79.0,74.1,30.03,SW,225,2.2,2.2,85,0.00,SCT,,0.00,WeatherDisplay:10.37,2013-06-21 08:00:00,
2013-06-21 04:05:00,79.2,74.3,30.04,SW,222,0.0,0.0,85,0.00,SCT,SCT,0.00,WeatherDisplay:10.37,2013-06-21 08:05:00,
2013-06-21 04:10:00,79.0,74.1,30.04,SW,230,0.0,0.0,85,0.00,SCT,SCT,0.00,WeatherDisplay:10.37,2013-06-21 08:10:00,
2013-06-21 04:15:00,78.8,73.9,30.03,SSW,213,0.0,0.0,85,0.00,SCT,SCT,0.00,WeatherDisplay:10.37,2013-06-21 08:15:00,
2013-06-21 04:20:00,78.6,74.1,30.03,SSW,199,0.0,0.0,86,0.00,SCT,SCT,0.00,WeatherDisplay:10.37,2013-06-21 08:20:00,
2013-06-21 04:25:00,79.2,74.3,30.03,South,190,0.0,3.0,85,0.00,SCT,SCT,0.00,WeatherDisplay:10.37,2013-06-21 08:25:00,
2013-06-21 04:30:00,79.7,74.1,30.03,SSE,158,2.0,3.0,83,0.00,SCT,SCT,0.00,WeatherDisplay:10.37,2013-06-21 08:30:00,
2013-06-21 04:35:00,79.9,74.3,30.03,South,176,2.0,3.0,83,0.00,SCT,SCT,0.00,WeatherDisplay:10.37,2013-06-21 08:35:00,
2013-06-21 04:40:00,80.2,73.8,30.03,South,171,1.0,7.0,81,0.00,SCT,SCT,0.00,WeatherDisplay:10.37,2013-06-21 08:40:00,
2013-06-21 04:45:00,80.1,73.8,30.03,SSE,149,5.0,7.0,81,0.00,SCT,SCT,0.00,WeatherDisplay:10.37,2013-06-21 08:45:00,
2013-06-21 04:50:00,80.4,74.0,30.03,SSW,210,1.0,5.0,81,0.00,SCT,SCT,0.00,WeatherDisplay:10.37,2013-06-21 08:50:00,
2013-06-21 04:55:00,80.2,73.8,30.03,WSW,248,1.7,1.7,81,0.00,SCT,,0.00,WeatherDisplay:10.37,2013-06-21 08:55:00,
2013-06-21 05:00:00,80.4,74.0,30.03,South,180,2.7,2.7,81,0.00,SCT,,0.00,WeatherDisplay:10.37,2013-06-21 09:00:00,
2013-06-21 05:05:00,80.2,74.2,30.03,East,90,1.2,0.0,82,0.00,BKN,SCT,0.00,WeatherDisplay:10.37,2013-06-21 09:05:00,
2013-06-21 05:10:00,80.2,74.6,30.03,SSE,158,2.3,2.3,83,0.00,BKN,SCT,0.00,WeatherDisplay:10.37,2013-06-21 09:10:00,
2013-06-21 05:15:00,80.2,74.6,30.03,SW,225,2.3,2.3,83,0.00,BKN,SCT,0.00,WeatherDisplay:10.37,2013-06-21 09:15:00,
2013-06-21 05:20:00,80.2,74.6,30.03,NE,45,3.8,3.8,83,0.00,BKN,SCT,0.00,WeatherDisplay:10.37,2013-06-21 09:20:00,
2013-06-21 05:25:00,80.4,74.8,30.03,SSE,158,0.0,0.0,83,0.00,BKN,SCT,0.00,WeatherDisplay:10.37,2013-06-21 09:25:00,
2013-06-21 05:30:00,80.4,74.8,30.03,SSW,202,3.5,3.5,83,0.00,BKN,SCT,0.00,WeatherDisplay:10.37,2013-06-21 09:30:00,
2013-06-21 05:35:00,80.4,74.8,30.03,SE,135,1.2,1.2,83,0.00,BKN,SCT,0.00,WeatherDisplay:10.37,2013-06-21 09:35:00,
2013-06-21 05:40:00,80.4,74.8,30.03,South,180,3.8,3.8,83,0.00,BKN,SCT,0.00,WeatherDisplay:10.37,2013-06-21 09:40:00,
2013-06-21 05:45:00,80.4,74.8,30.03,SE,135,2.3,2.3,83,0.00,BKN,SCT,0.00,WeatherDisplay:10.37,2013-06-21 09:45:00,
2013-06-21 05:50:00,80.4,75.1,30.03,SSW,202,3.5,3.5,84,0.00,BKN,SCT,0.00,WeatherDisplay:10.37,2013-06-21 09:50:00,
2013-06-21 05:55:00,80.4,75.1,30.03,ESE,112,4.8,4.8,84,0.00,BKN,SCT,0.00,WeatherDisplay:10.37,2013-06-21 09:55:00,
2013-06-21 06:01:00,80.4,75.1,30.03,ESE,112,3.3,3.3,84,0.00,BKN,SCT,0.00,WeatherDisplay:10.37,2013-06-21 10:01:00,
2013-06-21 06:06:00,80.4,75.1,30.03,SW,225,3.3,3.3,84,0.00,SCT,,0.00,WeatherDisplay:10.37,2013-06-21 10:06:00,
2013-06-21 06:11:00,80.4,75.1,30.03,WSW,248,3.5,3.5,84,0.00,SCT,,0.00,WeatherDisplay:10.37,2013-06-21 10:11:00,
2013-06-21 06:16:00,80.6,75.3,30.03,WSW,248,3.5,3.5,84,0.00,SCT,,0.00,WeatherDisplay:10.37,2013-06-21 10:16:00,
2013-06-21 06:21:00,80.6,75.7,30.03,SSE,158,3.8,3.8,85,0.00,SCT,,0.00,WeatherDisplay:10.37,2013-06-21 10:21:00,
2013-06-21 06:26:00,80.6,75.0,30.04,ESE,112,4.6,4.6,83,0.00,SCT,,0.00,WeatherDisplay:10.37,2013-06-21 10:26:00,
2013-06-21 06:31:00,80.6,75.0,30.04,SSE,158,4.6,4.6,83,0.00,SCT,,0.00,WeatherDisplay:10.37,2013-06-21 10:31:00,
2013-06-21 06:36:00,80.8,74.8,30.04,ESE,112,2.3,2.3,82,0.00,SCT,,0.00,WeatherDisplay:10.37,2013-06-21 10:36:00,
2013-06-21 06:41:00,80.6,75.0,30.04,South,180,1.2,0.0,83,0.00,SCT,,0.00,WeatherDisplay:10.37,2013-06-21 10:41:00,
2013-06-21 06:46:00,80.4,74.4,30.04,SSW,202,4.8,4.8,82,0.00,SCT,,0.00,WeatherDisplay:10.37,2013-06-21 10:46:00,
2013-06-21 06:51:00,80.4,74.4,30.04,SE,135,5.4,5.4,82,0.00,SCT,,0.00,WeatherDisplay:10.37,2013-06-21 10:51:00,
2013-06-21 06:56:00,80.6,74.6,30.04,SW,225,3.5,3.5,82,0.00,SCT,,0.00,WeatherDisplay:10.37,2013-06-21 10:56:00,
2013-06-21 07:01:00,80.8,74.8,30.05,WNW,292,3.8,3.8,82,0.00,SCT,,0.00,WeatherDisplay:10.37,2013-06-21 11:01:00,
2013-06-21 07:06:00,81.1,75.1,30.05,South,180,3.5,3.5,82,0.00,SCT,,0.00,WeatherDisplay:10.37,2013-06-21 11:06:00,
2013-06-21 07:11:00,81.3,74.9,30.05,ESE,112,2.3,2.3,81,0.00,SCT,,0.00,WeatherDisplay:10.37,2013-06-21 11:11:00,
2013-06-21 07:17:00,81.5,74.7,30.05,SSW,202,3.5,0.0,80,0.00,SCT,,0.00,WeatherDisplay:10.37,2013-06-21 11:17:00,
2013-06-21 07:22:00,81.7,74.9,30.05,SE,135,3.5,3.5,80,0.00,SCT,,0.00,WeatherDisplay:10.37,2013-06-21 11:22:00,
2013-06-21 07:27:00,82.6,75.8,30.06,SE,135,3.8,3.8,80,0.00,SCT,,0.00,WeatherDisplay:10.37,2013-06-21 11:27:00,
2013-06-21 07:32:00,82.9,75.3,30.06,South,180,4.8,4.8,78,0.00,SCT,,0.00,WeatherDisplay:10.37,2013-06-21 11:32:00,
2013-06-21 07:37:00,83.3,75.3,30.06,SSW,202,4.6,4.6,77,0.00,SCT,,0.00,WeatherDisplay:10.37,2013-06-21 11:37:00,
2013-06-21 07:42:00,83.7,75.3,30.06,West,270,4.6,4.6,76,0.00,SCT,,0.00,WeatherDisplay:10.37,2013-06-21 11:42:00,
2013-06-21 07:47:00,84.4,75.6,30.06,WSW,248,1.7,1.7,75,0.00,SCT,,0.00,WeatherDisplay:10.37,2013-06-21 11:47:00,
2013-06-21 07:52:00,85.1,75.9,30.06,South,180,3.5,3.5,74,0.00,SCT,,0.00,WeatherDisplay:10.37,2013-06-21 11:52:00,
2013-06-21 07:58:00,85.6,75.9,30.06,WSW,248,3.8,3.8,73,0.00,SCT,,0.00,WeatherDisplay:10.37,2013-06-21 11:58:00,
2013-06-21 08:03:00,85.8,76.1,30.07,SSW,202,3.5,3.5,73,0.00,SCT,,0.00,WeatherDisplay:10.37,2013-06-21 12:03:00,
2013-06-21 08:08:00,86.5,76.0,30.07,SSE,158,5.8,5.8,71,0.00,SCT,,0.00,WeatherDisplay:10.37,2013-06-21 12:08:00,
2013-06-21 08:13:00,86.9,75.9,30.07,SSW,202,4.6,4.6,70,0.00,SCT,,0.00,WeatherDisplay:10.37,2013-06-21 12:13:00,
2013-06-21 08:18:00,87.4,76.0,30.07,NNE,22,4.6,4.6,69,0.00,SCT,,0.00,WeatherDisplay:10.37,2013-06-21 12:18:00,
2013-06-21 08:23:00,87.6,75.7,30.07,ESE,112,4.8,4.8,68,0.00,SCT,,0.00,WeatherDisplay:10.37,2013-06-21 12:23:00,
2013-06-21 08:28:00,87.6,75.7,30.08,ENE,68,6.9,6.9,68,0.00,SCT,,0.00,WeatherDisplay:10.37,2013-06-21 12:28:00,
2013-06-21 08:33:00,87.6,75.7,30.08,SSE,158,6.9,6.9,68,0.00,SCT,,0.00,WeatherDisplay:10.37,2013-06-21 12:33:00,
2013-06-21 08:38:00,88.3,75.5,30.08,WSW,248,4.8,4.8,66,0.00,SCT,,0.00,WeatherDisplay:10.37,2013-06-21 12:38:00,
2013-06-21 08:43:00,89.8,76.5,30.08,NNE,22,3.5,3.5,65,0.00,SCT,,0.00,WeatherDisplay:10.37,2013-06-21 12:43:00,
2013-06-21 08:48:00,90.1,76.7,30.08,SSW,202,5.9,5.9,65,0.00,SCT,,0.00,WeatherDisplay:10.37,2013-06-21 12:48:00,
2013-06-21 08:53:00,89.4,75.6,30.08,SSW,202,6.9,6.9,64,0.00,SCT,,0.00,WeatherDisplay:10.37,2013-06-21 12:53:00,
2013-06-21 08:58:00,88.7,75.9,30.08,NNW,338,5.8,5.8,66,0.00,SCT,,0.00,WeatherDisplay:10.37,2013-06-21 12:58:00,
2013-06-21 09:04:00,89.2,75.9,30.09,WNW,292,3.5,3.5,65,0.00,SCT,,0.00,WeatherDisplay:10.37,2013-06-21 13:04:00,
2013-06-21 09:09:00,89.4,76.5,30.09,ENE,68,6.9,6.9,66,0.00,SCT,,0.00,WeatherDisplay:10.37,2013-06-21 13:09:00,
2013-06-21 09:14:00,90.0,76.6,30.09,South,180,5.8,5.8,65,0.00,SCT,,0.00,WeatherDisplay:10.37,2013-06-21 13:14:00,
2013-06-21 09:19:00,91.6,76.7,30.09,SSE,158,5.8,5.8,62,0.00,SCT,,0.00,WeatherDisplay:10.37,2013-06-21 13:19:00,
2013-06-21 09:24:00,90.7,75.9,30.09,SE,135,6.9,6.9,62,0.00,SCT,,0.00,WeatherDisplay:10.37,2013-06-21 13:24:00,
2013-06-21 09:29:00,91.8,76.4,30.10,South,180,4.8,4.8,61,0.00,SCT,,0.00,WeatherDisplay:10.37,2013-06-21 13:29:00,
2013-06-21 09:34:00,88.5,76.1,30.10,SE,135,4.8,4.8,67,0.00,SCT,,0.00,WeatherDisplay:10.37,2013-06-21 13:34:00,
2013-06-21 09:39:00,88.0,75.7,30.09,SW,225,4.6,4.6,67,0.00,SCT,,0.00,WeatherDisplay:10.37,2013-06-21 13:39:00,
2013-06-21 09:44:00,88.7,75.0,30.09,SE,135,5.8,5.8,64,0.00,SCT,,0.00,WeatherDisplay:10.37,2013-06-21 13:44:00,
2013-06-21 09:49:00,89.2,75.4,30.09,East,90,3.5,3.5,64,0.00,SCT,,0.00,WeatherDisplay:10.37,2013-06-21 13:49:00,
2013-06-21 09:54:00,88.5,75.7,30.09,WSW,248,4.6,4.6,66,0.00,SCT,,0.00,WeatherDisplay:10.37,2013-06-21 13:54:00,
2013-06-21 09:59:00,88.9,76.1,30.09,ESE,112,5.4,5.4,66,0.00,SCT,,0.00,WeatherDisplay:10.37,2013-06-21 13:59:00,
2013-06-21 10:04:00,89.4,75.6,30.09,ENE,68,6.9,6.9,64,0.00,SCT,,0.00,WeatherDisplay:10.37,2013-06-21 14:04:00,
2013-06-21 10:09:00,89.8,75.5,30.09,South,180,8.1,8.1,63,0.00,SCT,,0.00,WeatherDisplay:10.37,2013-06-21 14:09:00,
2013-06-21 10:14:00,89.2,75.4,30.10,SE,135,6.9,6.9,64,0.00,SCT,,0.00,WeatherDisplay:10.37,2013-06-21 14:14:00,
2013-06-21 10:20:00,89.2,75.4,30.10,SSE,159,3.0,6.0,64,0.00,SCT,SCT,0.00,WeatherDisplay:10.37,2013-06-21 14:20:00,
2013-06-21 10:25:00,89.3,75.5,30.10,SSE,167,3.0,7.0,64,0.00,SCT,SCT,0.00,WeatherDisplay:10.37,2013-06-21 14:25:00,
2013-06-21 10:30:00,90.1,75.3,30.10,SSE,148,5.0,7.0,62,0.00,SCT,SCT,0.00,WeatherDisplay:10.37,2013-06-21 14:30:00,
2013-06-21 10:35:00,91.1,75.8,30.10,SSW,192,5.0,5.0,61,0.00,SCT,SCT,0.00,WeatherDisplay:10.37,2013-06-21 14:35:00,
2013-06-21 10:40:00,91.1,75.8,30.11,SE,136,3.0,9.0,61,0.00,SCT,SCT,0.00,WeatherDisplay:10.37,2013-06-21 14:40:00,
2013-06-21 10:45:00,90.0,76.1,30.11,SE,145,5.0,6.0,64,0.00,SCT,SCT,0.00,WeatherDisplay:10.37,2013-06-21 14:45:00,
2013-06-21 10:50:00,89.5,76.2,30.11,SSE,162,3.0,7.0,65,0.00,SCT,SCT,0.00,WeatherDisplay:10.37,2013-06-21 14:50:00,
2013-06-21 10:55:00,90.9,76.6,30.11,East,93,3.0,7.0,63,0.00,SCT,SCT,0.00,WeatherDisplay:10.37,2013-06-21 14:55:00,
2013-06-21 11:00:00,89.6,75.8,30.11,ESE,110,3.0,6.0,64,0.00,SCT,SCT,0.00,WeatherDisplay:10.37,2013-06-21 15:00:00,
2013-06-21 11:05:00,90.1,75.3,30.11,SSE,152,6.0,8.0,62,0.00,SCT,SCT,0.00,WeatherDisplay:10.37,2013-06-21 15:05:00,
2013-06-21 11:10:00,90.4,75.6,30.11,SE,125,6.0,8.0,62,0.00,SCT,SCT,0.00,WeatherDisplay:10.37,2013-06-21 15:10:00,
2013-06-21 11:15:00,90.7,75.4,30.11,ESE,115,5.0,8.0,61,0.00,SCT,SCT,0.00,WeatherDisplay:10.37,2013-06-21 15:15:00,
2013-06-21 11:20:00,90.5,75.2,30.11,SE,132,5.0,7.0,61,0.00,SCT,SCT,0.00,WeatherDisplay:10.37,2013-06-21 15:20:00,
2013-06-21 11:25:00,91.6,75.7,30.11,SE,129,5.0,7.0,60,0.00,SCT,SCT,0.00,WeatherDisplay:10.37,2013-06-21 15:25:00,
2013-06-21 11:30:00,90.6,75.8,30.12,SSE,152,5.0,8.0,62,0.00,SCT,SCT,0.00,WeatherDisplay:10.37,2013-06-21 15:30:00,
2013-06-21 11:35:00,91.8,75.9,30.12,SSE,156,6.0,7.0,60,0.00,SCT,SCT,0.00,WeatherDisplay:10.37,2013-06-21 15:35:00,
2013-06-21 11:40:00,92.3,76.9,30.11,ESE,112,6.9,6.9,61,0.00,SCT,,0.00,WeatherDisplay:10.37,2013-06-21 15:40:00,
2013-06-21 11:46:00,92.1,76.2,30.11,NNE,22,5.9,5.9,60,0.00,SCT,,0.00,WeatherDisplay:10.37,2013-06-21 15:46:00,
2013-06-21 11:51:00,92.1,76.2,30.11,South,180,4.6,4.6,60,0.00,SCT,,0.00,WeatherDisplay:10.37,2013-06-21 15:51:00,
2013-06-21 11:56:00,91.4,76.5,30.11,NNE,22,6.9,6.9,62,0.00,SCT,,0.00,WeatherDisplay:10.37,2013-06-21 15:56:00,
2013-06-21 12:01:00,91.8,76.9,30.12,WSW,248,4.6,4.6,62,0.00,SCT,,0.00,WeatherDisplay:10.37,2013-06-21 16:01:00,
2013-06-21 12:06:00,91.9,77.0,30.12,SW,225,6.9,6.9,62,0.00,SCT,,0.00,WeatherDisplay:10.37,2013-06-21 16:06:00,
2013-06-21 12:11:00,91.9,77.0,30.12,SSW,202,5.8,5.8,62,0.00,SCT,,0.00,WeatherDisplay:10.37,2013-06-21 16:11:00,
2013-06-21 12:16:00,90.9,76.1,30.12,SE,135,3.3,3.3,62,0.00,SCT,,0.00,WeatherDisplay:10.37,2013-06-21 16:16:00,
2013-06-21 12:21:00,92.7,75.8,30.12,ESE,112,8.1,8.1,58,0.00,SCT,,0.00,WeatherDisplay:10.37,2013-06-21 16:21:00,
2013-06-21 12:26:00,91.2,75.9,30.11,South,180,6.9,6.9,61,0.00,SCT,,0.00,WeatherDisplay:10.37,2013-06-21 16:26:00,
2013-06-21 12:31:00,93.0,76.6,30.11,SE,135,8.1,8.1,59,0.00,SCT,,0.00,WeatherDisplay:10.37,2013-06-21 16:31:00,
2013-06-21 12:36:00,92.5,76.6,30.11,SE,135,6.9,6.9,60,0.00,SCT,,0.00,WeatherDisplay:10.37,2013-06-21 16:36:00,
2013-06-21 12:42:00,91.4,76.1,30.11,ESE,112,5.8,5.8,61,0.00,SCT,,0.00,WeatherDisplay:10.37,2013-06-21 16:42:00,
2013-06-21 12:47:00,92.3,76.4,30.11,East,90,6.9,6.9,60,0.00,SCT,,0.00,WeatherDisplay:10.37,2013-06-21 16:47:00,
2013-06-21 12:52:00,91.9,76.0,30.11,SSE,158,8.1,8.1,60,0.00,SCT,,0.00,WeatherDisplay:10.37,2013-06-21 16:52:00,
2013-06-21 12:57:00,90.5,75.2,30.11,WNW,292,5.4,5.4,61,0.00,SCT,,0.00,WeatherDisplay:10.37,2013-06-21 16:57:00,
2013-06-21 13:02:00,91.9,76.0,30.11,SE,135,6.9,6.9,60,0.00,SCT,,0.00,WeatherDisplay:10.37,2013-06-21 17:02:00,
2013-06-21 13:07:00,91.4,76.1,30.11,SSE,158,5.9,5.9,61,0.00,SCT,,0.00,WeatherDisplay:10.37,2013-06-21 17:07:00,
2013-06-21 13:13:00,93.0,77.1,30.11,NNE,22,9.0,9.0,60,0.00,SCT,,0.00,WeatherDisplay:10.37,2013-06-21 17:13:00,
2013-06-21 13:18:00,92.8,75.8,30.10,NNW,338,8.1,8.1,58,0.00,SCT,,0.00,WeatherDisplay:10.37,2013-06-21 17:18:00,
2013-06-21 13:23:00,91.6,75.7,30.10,SSW,202,6.9,6.9,60,0.00,SCT,,0.00,WeatherDisplay:10.37,2013-06-21 17:23:00,
2013-06-21 13:28:00,93.0,76.0,30.10,ESE,112,9.0,9.0,58,0.00,SCT,,0.00,WeatherDisplay:10.37,2013-06-21 17:28:00,
2013-06-21 13:34:00,91.6,76.2,30.10,SE,135,6.9,6.9,61,0.00,SCT,,0.00,WeatherDisplay:10.37,2013-06-21 17:34:00,
2013-06-21 13:40:00,92.7,76.2,30.10,ESE,103,7.0,10.0,59,0.00,SCT,SCT,0.00,WeatherDisplay:10.37,2013-06-21 17:40:00,
2013-06-21 13:45:00,91.9,76.0,30.10,SE,136,6.0,10.0,60,0.00,SCT,SCT,0.00,WeatherDisplay:10.37,2013-06-21 17:45:00,
2013-06-21 13:46:00,91.8,75.9,30.10,SSW,202,9.2,9.2,60,0.00,SCT,,0.00,WeatherDisplay:10.37,2013-06-21 17:46:00,
2013-06-21 13:47:00,91.8,75.9,30.10,SSE,158,9.2,9.2,60,0.00,SCT,,0.00,WeatherDisplay:10.37,2013-06-21 17:47:00,
2013-06-21 13:52:00,92.1,76.2,30.09,SSW,202,8.1,8.1,60,0.00,SCT,,0.00,WeatherDisplay:10.37,2013-06-21 17:52:00,
2013-06-21 13:55:00,92.9,76.4,30.09,SE,146,3.0,8.0,59,0.00,SCT,SCT,0.00,WeatherDisplay:10.37,2013-06-21 17:55:00,
2013-06-21 14:00:00,93.4,76.4,30.09,SE,142,5.0,7.0,58,0.00,SCT,SCT,0.00,WeatherDisplay:10.37,2013-06-21 18:00:00,
2013-06-21 14:05:00,93.1,76.1,30.09,SSE,159,6.0,8.0,58,0.00,SCT,SCT,0.00,WeatherDisplay:10.37,2013-06-21 18:05:00,
2013-06-21 14:10:00,93.3,76.8,30.09,SSE,163,3.0,9.0,59,0.00,BKN,SCT,0.00,WeatherDisplay:10.37,2013-06-21 18:10:00,
2013-06-21 14:15:00,93.0,76.0,30.09,SSE,158,8.1,8.1,58,0.00,BKN,SCT,0.00,WeatherDisplay:10.37,2013-06-21 18:15:00,
2013-06-21 14:21:00,93.2,75.7,30.09,East,90,8.1,8.1,57,0.00,BKN,SCT,0.00,WeatherDisplay:10.37,2013-06-21 18:21:00,
2013-06-21 14:23:00,92.3,75.9,30.09,NNE,22,8.1,8.1,59,0.00,BKN,SCT,0.00,WeatherDisplay:10.37,2013-06-21 18:23:00,
2013-06-21 14:24:00,92.1,75.7,30.09,ENE,68,8.1,8.1,59,0.00,BKN,SCT,0.00,WeatherDisplay:10.37,2013-06-21 18:24:00,
2013-06-21 14:25:00,92.2,75.8,30.09,ESE,119,6.0,12.0,59,0.00,BKN,SCT,0.00,WeatherDisplay:10.37,2013-06-21 18:25:00,
2013-06-21 14:27:00,93.2,76.2,30.09,South,180,6.9,6.9,58,0.00,BKN,SCT,0.00,WeatherDisplay:10.37,2013-06-21 18:27:00,
2013-06-21 14:32:00,92.7,76.3,30.09,SE,135,8.1,8.1,59,0.00,BKN,SCT,0.00,WeatherDisplay:10.37,2013-06-21 18:32:00,
2013-06-21 14:37:00,92.7,75.8,30.09,South,180,12.7,12.7,58,0.00,BKN,SCT,0.00,WeatherDisplay:10.37,2013-06-21 18:37:00,
2013-06-21 14:42:00,91.4,76.1,30.09,SSE,158,6.9,6.9,61,0.00,BKN,SCT,0.00,WeatherDisplay:10.37,2013-06-21 18:42:00,
2013-06-21 14:46:00,91.4,75.6,30.09,ESE,112,5.8,5.8,60,0.00,BKN,SCT,0.00,WeatherDisplay:10.37,2013-06-21 18:46:00,
2013-06-21 14:47:00,91.8,75.9,30.09,South,180,5.8,5.8,60,0.00,BKN,SCT,0.00,WeatherDisplay:10.37,2013-06-21 18:47:00,
2013-06-21 14:49:00,92.8,76.4,30.09,WSW,248,6.9,6.9,59,0.00,BKN,SCT,0.00,WeatherDisplay:10.37,2013-06-21 18:49:00,
2013-06-21 14:50:00,92.5,76.1,30.09,SE,135,6.9,6.9,59,0.00,BKN,SCT,0.00,WeatherDisplay:10.37,2013-06-21 18:50:00,
2013-06-21 14:55:00,92.8,76.4,30.09,East,90,6.9,6.9,59,0.00,BKN,SCT,0.00,WeatherDisplay:10.37,2013-06-21 18:55:00,
2013-06-21 15:00:00,92.5,76.1,30.09,NNE,22,9.2,9.2,59,0.00,BKN,SCT,0.00,WeatherDisplay:10.37,2013-06-21 19:00:00,
2013-06-21 15:05:00,92.5,76.1,30.09,South,180,6.9,6.9,59,0.00,BKN,SCT,0.00,WeatherDisplay:10.37,2013-06-21 19:05:00,
2013-06-21 15:11:00,92.7,76.3,30.09,North,360,8.1,8.1,59,0.00,BKN,SCT,0.00,WeatherDisplay:10.37,2013-06-21 19:11:00,
2013-06-21 15:16:00,92.7,76.3,30.08,East,90,8.1,8.1,59,0.00,BKN,SCT,0.00,WeatherDisplay:10.37,2013-06-21 19:16:00,
2013-06-21 15:20:00,92.7,77.3,30.08,East,90,6.9,6.9,61,0.00,BKN,SCT,0.00,WeatherDisplay:10.37,2013-06-21 19:20:00,
2013-06-21 15:25:00,92.8,76.4,30.09,ESE,112,8.1,8.1,59,0.00,BKN,SCT,0.00,WeatherDisplay:10.37,2013-06-21 19:25:00,
2013-06-21 15:31:00,92.1,76.2,30.09,ESE,112,8.1,8.1,60,0.00,BKN,SCT,0.00,WeatherDisplay:10.37,2013-06-21 19:31:00,
2013-06-21 15:36:00,91.6,76.2,30.09,South,180,6.9,6.9,61,0.00,BKN,SCT,0.00,WeatherDisplay:10.37,2013-06-21 19:36:00,
2013-06-21 15:41:00,91.8,76.4,30.08,ESE,112,8.0,8.0,61,0.00,BKN,SCT,0.00,WeatherDisplay:10.37,2013-06-21 19:41:00,
2013-06-21 15:42:00,91.9,76.0,30.08,ENE,68,8.1,8.1,60,0.00,BKN,SCT,0.00,WeatherDisplay:10.37,2013-06-21 19:42:00,
2013-06-21 15:45:00,91.8,75.9,30.08,SE,135,9.2,9.2,60,0.00,BKN,SCT,0.00,WeatherDisplay:10.37,2013-06-21 19:45:00,
2013-06-21 15:50:00,92.3,76.4,30.08,WSW,248,6.9,6.9,60,0.00,BKN,SCT,0.00,WeatherDisplay:10.37,2013-06-21 19:50:00,
2013-06-21 15:55:00,92.7,76.3,30.08,SE,135,8.1,8.1,59,0.00,BKN,SCT,0.00,WeatherDisplay:10.37,2013-06-21 19:55:00,
2013-06-21 16:00:00,92.1,76.2,30.08,West,270,6.9,6.9,60,0.00,BKN,SCT,0.00,WeatherDisplay:10.37,2013-06-21 20:00:00,
2013-06-21 16:05:00,92.7,76.8,30.08,SE,135,6.9,6.9,60,0.00,SCT,,0.00,WeatherDisplay:10.37,2013-06-21 20:05:00,
2013-06-21 16:10:00,92.8,76.9,30.08,ESE,112,4.6,4.6,60,0.00,SCT,,0.00,WeatherDisplay:10.37,2013-06-21 20:10:00,
2013-06-21 16:12:00,93.0,77.1,30.08,West,270,4.6,4.6,60,0.00,SCT,,0.00,WeatherDisplay:10.37,2013-06-21 20:12:00,
2013-06-21 16:16:00,92.3,77.4,30.08,SE,135,9.2,9.2,62,0.00,SCT,,0.00,WeatherDisplay:10.37,2013-06-21 20:16:00,
2013-06-21 16:21:00,91.4,77.0,30.08,NNE,22,8.1,8.1,63,0.00,SCT,,0.00,WeatherDisplay:10.37,2013-06-21 20:21:00,
2013-06-21 16:26:00,92.1,76.7,30.07,East,90,8.1,8.1,61,0.00,SCT,,0.00,WeatherDisplay:10.37,2013-06-21 20:26:00,
2013-06-21 16:31:00,91.0,76.2,30.07,NNE,22,9.2,9.2,62,0.00,SCT,,0.00,WeatherDisplay:10.37,2013-06-21 20:31:00,
2013-06-21 16:36:00,91.0,76.2,30.07,SSW,202,4.6,4.6,62,0.00,SCT,,0.00,WeatherDisplay:10.37,2013-06-21 20:36:00,
2013-06-21 16:41:00,91.0,76.2,30.07,ESE,112,7.5,7.5,62,0.00,SCT,,0.00,WeatherDisplay:10.37,2013-06-21 20:41:00,
2013-06-21 16:48:00,92.3,76.9,30.07,ESE,112,6.9,6.9,61,0.00,SCT,,0.00,WeatherDisplay:10.37,2013-06-21 20:48:00,
2013-06-21 16:54:00,92.1,76.7,30.07,ESE,112,6.9,6.9,61,0.00,SCT,,0.00,WeatherDisplay:10.37,2013-06-21 20:54:00,
2013-06-21 16:59:00,92.5,77.1,30.07,ESE,112,6.9,6.9,61,0.00,SCT,,0.00,WeatherDisplay:10.37,2013-06-21 20:59:00,
2013-06-21 17:04:00,93.4,77.4,30.07,SE,135,6.9,6.9,60,0.00,SCT,,0.00,WeatherDisplay:10.37,2013-06-21 21:04:00,
2013-06-21 17:09:00,94.5,77.4,30.07,SE,135,8.1,8.1,58,0.00,SCT,,0.00,WeatherDisplay:10.37,2013-06-21 21:09:00,
2013-06-21 17:14:00,93.7,76.7,30.07,SSW,202,8.1,8.1,58,0.00,SCT,,0.00,WeatherDisplay:10.37,2013-06-21 21:14:00,
2013-06-21 17:19:00,94.5,76.9,30.07,NNW,338,4.8,4.8,57,0.00,SCT,,0.00,WeatherDisplay:10.37,2013-06-21 21:19:00,
2013-06-21 17:24:00,94.1,76.5,30.07,South,180,6.9,6.9,57,0.00,SCT,,0.00,WeatherDisplay:10.37,2013-06-21 21:24:00,
2013-06-21 17:29:00,94.6,76.5,30.07,NE,45,5.9,5.9,56,0.00,SCT,,0.00,WeatherDisplay:10.37,2013-06-21 21:29:00,
2013-06-21 17:34:00,93.7,76.2,30.07,SSW,202,6.9,6.9,57,0.00,SCT,,0.00,WeatherDisplay:10.37,2013-06-21 21:34:00,
2013-06-21 17:39:00,93.9,76.9,30.06,ESE,112,8.1,8.1,58,0.00,SCT,,0.00,WeatherDisplay:10.37,2013-06-21 21:39:00,
2013-06-21 17:44:00,92.7,76.8,30.06,East,90,5.8,5.8,60,0.00,SCT,,0.00,WeatherDisplay:10.37,2013-06-21 21:44:00,
2013-06-21 17:49:00,91.6,76.2,30.06,ENE,68,6.9,6.9,61,0.00,SCT,,0.00,WeatherDisplay:10.37,2013-06-21 21:49:00,
2013-06-21 17:54:00,90.5,76.2,30.06,ESE,112,7.5,7.5,63,0.00,SCT,,0.00,WeatherDisplay:10.37,2013-06-21 21:54:00,
2013-06-21 17:59:00,90.7,76.4,30.06,ESE,112,4.6,4.6,63,0.00,SCT,,0.00,WeatherDisplay:10.37,2013-06-21 21:59:00,
2013-06-21 18:04:00,90.7,75.9,30.06,East,90,6.4,6.4,62,0.00,SCT,,0.00,WeatherDisplay:10.37,2013-06-21 22:04:00,
2013-06-21 18:10:00,90.0,76.2,30.06,East,90,6.9,6.9,64,0.00,SCT,,0.00,WeatherDisplay:10.37,2013-06-21 22:10:00,
2013-06-21 18:15:00,89.3,76.0,30.06,East,87,6.0,8.0,65,0.00,SCT,SCT,0.00,WeatherDisplay:10.37,2013-06-21 22:15:00,
2013-06-21 18:20:00,89.2,75.9,30.06,East,82,6.0,7.0,65,0.00,SCT,SCT,0.00,WeatherDisplay:10.37,2013-06-21 22:20:00,
2013-06-21 18:25:00,89.9,76.1,30.06,ESE,105,2.0,7.0,64,0.00,SCT,SCT,0.00,WeatherDisplay:10.37,2013-06-21 22:25:00,
2013-06-21 18:30:00,89.8,76.0,30.07,ESE,109,3.0,7.0,64,0.00,SCT,SCT,0.00,WeatherDisplay:10.37,2013-06-21 22:30:00,
2013-06-21 18:35:00,89.6,75.8,30.07,ESE,110,1.0,6.0,64,0.00,SCT,SCT,0.00,WeatherDisplay:10.37,2013-06-21 22:35:00,
2013-06-21 18:40:00,88.7,74.9,30.07,ESE,123,5.0,7.0,64,0.00,SCT,SCT,0.00,WeatherDisplay:10.37,2013-06-21 22:40:00,
2013-06-21 18:45:00,88.0,75.2,30.07,ESE,102,3.0,9.0,66,0.00,SCT,SCT,0.00,WeatherDisplay:10.37,2013-06-21 22:45:00,
2013-06-21 18:50:00,88.0,75.2,30.08,ESE,106,0.0,9.0,66,0.00,SCT,SCT,0.00,WeatherDisplay:10.37,2013-06-21 22:50:00,
2013-06-21 18:55:00,87.9,75.6,30.08,ESE,109,6.0,7.0,67,0.00,SCT,SCT,0.00,WeatherDisplay:10.37,2013-06-21 22:55:00,
2013-06-21 19:00:00,87.4,75.1,30.08,ESE,112,6.9,6.9,67,0.00,SCT,,0.00,WeatherDisplay:10.37,2013-06-21 23:00:00,
2013-06-21 19:05:00,87.3,75.4,30.08,NNE,22,4.6,4.6,68,0.00,SCT,,0.00,WeatherDisplay:10.37,2013-06-21 23:05:00,
2013-06-21 19:10:00,87.1,75.3,30.08,NE,45,5.8,5.8,68,0.00,SCT,,0.00,WeatherDisplay:10.37,2013-06-21 23:10:00,
2013-06-21 19:15:00,86.7,74.9,30.08,East,90,4.8,4.8,68,0.00,SCT,,0.00,WeatherDisplay:10.37,2013-06-21 23:15:00,
2013-06-21 19:20:00,86.5,74.7,30.08,East,90,4.8,4.8,68,0.00,SCT,,0.00,WeatherDisplay:10.37,2013-06-21 23:20:00,
2013-06-21 19:25:00,86.4,75.0,30.08,North,360,5.8,5.8,69,0.00,SCT,,0.00,WeatherDisplay:10.37,2013-06-21 23:25:00,
2013-06-21 19:30:00,85.8,74.4,30.07,SSE,158,8.1,8.1,69,0.00,SCT,,0.00,WeatherDisplay:10.37,2013-06-21 23:30:00,
2013-06-21 19:35:00,85.6,74.3,30.07,South,180,4.6,4.6,69,0.00,SCT,,0.00,WeatherDisplay:10.37,2013-06-21 23:35:00,
2013-06-21 19:40:00,84.9,74.0,30.07,SSE,158,5.9,5.9,70,0.00,SCT,,0.00,WeatherDisplay:10.37,2013-06-21 23:40:00,
2013-06-21 19:45:00,84.7,74.3,30.07,West,270,5.4,5.4,71,0.00,SCT,,0.00,WeatherDisplay:10.37,2013-06-21 23:45:00,
2013-06-21 19:50:00,84.7,74.7,30.07,NE,45,4.3,4.3,72,0.00,SCT,,0.00,WeatherDisplay:10.37,2013-06-21 23:50:00,
2013-06-21 19:55:00,84.6,74.6,30.07,East,90,4.3,4.3,72,0.00,SCT,,0.00,WeatherDisplay:10.37,2013-06-21 23:55:00,
2013-06-21 20:00:00,84.2,74.6,30.07,NNE,22,5.9,5.9,73,0.00,SCT,,0.00,WeatherDisplay:10.37,2013-06-22 00:00:00,
2013-06-21 20:05:00,83.7,74.1,30.08,ENE,68,5.8,5.8,73,0.00,SCT,,0.00,WeatherDisplay:10.37,2013-06-22 00:05:00,
2013-06-21 20:11:00,83.5,73.9,30.08,East,90,4.6,4.6,73,0.00,SCT,,0.00,WeatherDisplay:10.37,2013-06-22 00:11:00,
2013-06-21 20:16:00,83.3,74.1,30.08,East,90,3.5,3.5,74,0.00,SCT,,0.00,WeatherDisplay:10.37,2013-06-22 00:16:00,
2013-06-21 20:21:00,83.1,73.9,30.08,South,180,5.9,5.9,74,0.00,SCT,,0.00,WeatherDisplay:10.37,2013-06-22 00:21:00,
2013-06-21 20:26:00,83.1,73.9,30.08,SSE,158,4.6,4.6,74,0.00,SCT,,0.00,WeatherDisplay:10.37,2013-06-22 00:26:00,
2013-06-21 20:31:00,82.9,73.8,30.08,East,90,4.6,4.6,74,0.00,SCT,,0.00,WeatherDisplay:10.37,2013-06-22 00:31:00,
2013-06-21 20:36:00,82.8,73.7,30.08,North,360,3.5,3.5,74,0.00,SCT,,0.00,WeatherDisplay:10.37,2013-06-22 00:36:00,
2013-06-21 20:41:00,82.6,73.9,30.09,ESE,112,2.3,2.3,75,0.00,SCT,,0.00,WeatherDisplay:10.37,2013-06-22 00:41:00,
2013-06-21 20:46:00,82.6,73.9,30.09,ESE,112,3.5,3.5,75,0.00,SCT,,0.00,WeatherDisplay:10.37,2013-06-22 00:46:00,
2013-06-21 20:51:00,82.6,73.9,30.10,NW,315,3.5,3.5,75,0.00,SCT,,0.00,WeatherDisplay:10.37,2013-06-22 00:51:00,
2013-06-21 20:56:00,82.6,74.3,30.10,SE,135,5.8,5.8,76,0.00,SCT,,0.00,WeatherDisplay:10.37,2013-06-22 00:56:00,
2013-06-21 21:01:00,82.6,74.7,30.09,NNE,22,4.6,4.6,77,0.00,SCT,,0.00,WeatherDisplay:10.37,2013-06-22 01:01:00,
2013-06-21 21:06:00,82.4,74.5,30.09,NE,45,3.5,3.5,77,0.00,SCT,,0.00,WeatherDisplay:10.37,2013-06-22 01:06:00,
2013-06-21 21:11:00,82.4,74.5,30.09,SSE,158,4.3,4.3,77,0.00,SCT,,0.00,WeatherDisplay:10.37,2013-06-22 01:11:00,
2013-06-21 21:16:00,82.2,74.3,30.09,NNE,22,4.6,4.6,77,0.00,SCT,,0.00,WeatherDisplay:10.37,2013-06-22 01:16:00,
2013-06-21 21:21:00,82.0,74.1,30.09,ESE,112,3.5,3.5,77,0.00,SCT,,0.00,WeatherDisplay:10.37,2013-06-22 01:21:00,
2013-06-21 21:27:00,82.0,74.1,30.09,ESE,112,2.7,2.7,77,0.00,SCT,,0.00,WeatherDisplay:10.37,2013-06-22 01:27:00,
2013-06-21 21:32:00,82.0,73.7,30.09,East,90,4.6,4.6,76,0.00,SCT,,0.00,WeatherDisplay:10.37,2013-06-22 01:32:00,
2013-06-21 21:37:00,82.0,73.7,30.09,ESE,112,4.6,0.0,76,0.00,SCT,,0.00,WeatherDisplay:10.37,2013-06-22 01:37:00,
2013-06-21 21:42:00,82.0,73.7,30.10,NE,45,2.7,2.7,76,0.00,SCT,,0.00,WeatherDisplay:10.37,2013-06-22 01:42:00,
2013-06-21 21:47:00,82.0,73.7,30.10,NW,315,5.8,5.8,76,0.00,SCT,,0.00,WeatherDisplay:10.37,2013-06-22 01:47:00,
2013-06-21 21:52:00,82.0,73.7,30.10,ESE,112,6.9,6.9,76,0.00,SCT,,0.00,WeatherDisplay:10.37,2013-06-22 01:52:00,
2013-06-21 21:57:00,82.0,73.7,30.10,NE,45,6.9,6.9,76,0.00,SCT,,0.00,WeatherDisplay:10.37,2013-06-22 01:57:00,
2013-06-21 22:02:00,82.0,73.7,30.10,East,90,4.6,4.6,76,0.00,SCT,,0.00,WeatherDisplay:10.37,2013-06-22 02:02:00,
2013-06-21 22:07:00,82.0,73.7,30.10,SW,225,3.8,3.8,76,0.00,SCT,,0.00,WeatherDisplay:10.37,2013-06-22 02:07:00,
2013-06-21 22:12:00,82.0,74.1,30.10,NNE,22,0.0,0.0,77,0.00,SCT,,0.00,WeatherDisplay:10.37,2013-06-22 02:12:00,
2013-06-21 22:17:00,82.0,74.1,30.10,NE,45,2.7,2.7,77,0.00,SCT,,0.00,WeatherDisplay:10.37,2013-06-22 02:17:00,
2013-06-21 22:22:00,81.9,74.0,30.10,South,180,2.7,2.7,77,0.00,SCT,,0.00,WeatherDisplay:10.37,2013-06-22 02:22:00,
2013-06-21 22:27:00,81.9,74.0,30.11,SE,135,4.3,4.3,77,0.00,SCT,,0.00,WeatherDisplay:10.37,2013-06-22 02:27:00,
2013-06-21 22:32:00,81.9,74.0,30.11,WSW,248,5.8,5.8,77,0.00,SCT,,0.00,WeatherDisplay:10.37,2013-06-22 02:32:00,
2013-06-21 22:37:00,81.9,74.0,30.11,NE,45,4.6,4.6,77,0.00,SCT,,0.00,WeatherDisplay:10.37,2013-06-22 02:37:00,
2013-06-21 22:43:00,81.9,74.0,30.11,ESE,112,4.6,4.6,77,0.00,SCT,,0.00,WeatherDisplay:10.37,2013-06-22 02:43:00,
2013-06-21 22:48:00,81.9,74.0,30.11,ENE,68,5.8,5.8,77,0.00,SCT,,0.00,WeatherDisplay:10.37,2013-06-22 02:48:00,
2013-06-21 22:53:00,81.9,74.0,30.11,SE,135,5.8,5.8,77,0.00,SCT,,0.00,WeatherDisplay:10.37,2013-06-22 02:53:00,
2013-06-21 22:58:00,81.9,74.0,30.11,SW,225,6.9,6.9,77,0.00,SCT,,0.00,WeatherDisplay:10.37,2013-06-22 02:58:00,
2013-06-21 23:03:00,81.9,74.0,30.11,South,180,5.8,5.8,77,0.00,SCT,,0.00,WeatherDisplay:10.37,2013-06-22 03:03:00,
2013-06-21 23:08:00,81.9,74.0,30.11,East,90,6.9,6.9,77,0.00,FEW,SCT,0.00,WeatherDisplay:10.37,2013-06-22 03:08:00,
2013-06-21 23:13:00,81.9,74.0,30.11,SE,135,4.6,4.6,77,0.00,FEW,SCT,0.00,WeatherDisplay:10.37,2013-06-22 03:13:00,
2013-06-21 23:18:00,81.9,74.0,30.11,East,90,5.8,5.8,77,0.00,FEW,SCT,0.00,WeatherDisplay:10.37,2013-06-22 03:18:00,
2013-06-21 23:23:00,81.9,74.0,30.11,ENE,68,6.9,6.9,77,0.00,FEW,SCT,0.00,WeatherDisplay:10.37,2013-06-22 03:23:00,
2013-06-21 23:28:00,81.9,74.0,30.10,WSW,248,5.8,5.8,77,0.00,FEW,SCT,0.00,WeatherDisplay:10.37,2013-06-22 03:28:00,
2013-06-21 23:33:00,81.9,74.0,30.10,NNE,22,5.9,5.9,77,0.00,FEW,SCT,0.00,WeatherDisplay:10.37,2013-06-22 03:33:00,
2013-06-21 23:38:00,81.9,74.0,30.10,East,90,7.5,7.5,77,0.00,FEW,SCT,0.00,WeatherDisplay:10.37,2013-06-22 03:38:00,
2013-06-21 23:43:00,81.9,74.0,30.10,SSW,202,4.6,4.6,77,0.00,FEW,SCT,0.00,WeatherDisplay:10.37,2013-06-22 03:43:00,
2013-06-21 23:48:00,81.7,73.8,30.10,West,270,5.8,5.8,77,0.00,FEW,SCT,0.00,WeatherDisplay:10.37,2013-06-22 03:48:00,
2013-06-21 23:53:00,81.7,73.8,30.11,NNW,338,3.8,3.8,77,0.00,FEW,SCT,0.00,WeatherDisplay:10.37,2013-06-22 03:53:00,
2013-06-21 23:59:00,81.7,73.8,30.11,South,180,5.4,5.4,77,0.00,FEW,SCT,0.00,WeatherDisplay:10.37,2013-06-22 03:59:00,